sensor_id;sensor_type;location;lat;lon;timestamp;temperature;humidity
666;DHT22;315;48.738;9.126;2022-08-14T00:01:08;18.70;99.90
666;DHT22;315;48.738;9.126;2022-08-14T00:03:33;18.70;99.60
666;DHT22;315;48.738;9.126;2022-08-14T00:06:00;18.70;99.90
666;DHT22;315;48.738;9.126;2022-08-14T00:08:26;18.80;99.90
666;DHT22;315;48.738;9.126;2022-08-14T00:10:52;18.70;99.90
666;DHT22;315;48.738;9.126;2022-08-14T00:13:20;18.70;99.90
666;DHT22;315;48.738;9.126;2022-08-14T00:15:48;19.40;99.90
666;DHT22;315;48.738;9.126;2022-08-14T00:18:19;18.60;99.90
666;DHT22;315;48.738;9.126;2022-08-14T00:20:46;18.60;99.90
666;DHT22;315;48.738;9.126;2022-08-14T00:23:13;18.50;99.90
666;DHT22;315;48.738;9.126;2022-08-14T00:25:39;18.30;99.90
666;DHT22;315;48.738;9.126;2022-08-14T00:28:08;18.30;99.90
666;DHT22;315;48.738;9.126;2022-08-14T00:30:34;18.30;99.90
666;DHT22;315;48.738;9.126;2022-08-14T00:33:01;18.30;99.90
666;DHT22;315;48.738;9.126;2022-08-14T00:35:26;18.40;99.90
666;DHT22;315;48.738;9.126;2022-08-14T00:37:52;18.40;99.90
666;DHT22;315;48.738;9.126;2022-08-14T00:40:19;18.40;99.90
666;DHT22;315;48.738;9.126;2022-08-14T00:42:46;18.40;99.90
666;DHT22;315;48.738;9.126;2022-08-14T00:45:13;18.30;99.90
666;DHT22;315;48.738;9.126;2022-08-14T00:47:45;18.20;99.90
666;DHT22;315;48.738;9.126;2022-08-14T00:50:14;18.10;99.90
666;DHT22;315;48.738;9.126;2022-08-14T00:52:40;18.10;99.90
666;DHT22;315;48.738;9.126;2022-08-14T00:55:07;18.10;99.90
666;DHT22;315;48.738;9.126;2022-08-14T00:57:34;18.10;99.90
666;DHT22;315;48.738;9.126;2022-08-14T01:00:00;18.10;99.90
666;DHT22;315;48.738;9.126;2022-08-14T01:02:27;18.10;99.90
666;DHT22;315;48.738;9.126;2022-08-14T01:04:55;18.10;99.90
666;DHT22;315;48.738;9.126;2022-08-14T01:07:23;18.10;99.90
666;DHT22;315;48.738;9.126;2022-08-14T01:09:54;18.00;99.90
666;DHT22;315;48.738;9.126;2022-08-14T01:12:21;18.10;99.90
666;DHT22;315;48.738;9.126;2022-08-14T01:14:47;18.10;99.90
666;DHT22;315;48.738;9.126;2022-08-14T01:17:23;18.00;99.90
666;DHT22;315;48.738;9.126;2022-08-14T01:19:49;18.10;99.90
666;DHT22;315;48.738;9.126;2022-08-14T01:22:33;18.10;99.90
666;DHT22;315;48.738;9.126;2022-08-14T01:25:00;18.10;99.90
666;DHT22;315;48.738;9.126;2022-08-14T01:27:25;17.90;99.90
666;DHT22;315;48.738;9.126;2022-08-14T01:29:54;17.90;99.90
666;DHT22;315;48.738;9.126;2022-08-14T01:32:21;17.80;99.90
666;DHT22;315;48.738;9.126;2022-08-14T01:34:48;17.80;99.90
666;DHT22;315;48.738;9.126;2022-08-14T01:37:15;17.70;99.90
666;DHT22;315;48.738;9.126;2022-08-14T01:39:40;17.80;99.90
666;DHT22;315;48.738;9.126;2022-08-14T01:42:07;17.70;99.90
666;DHT22;315;48.738;9.126;2022-08-14T01:44:33;17.70;99.90
666;DHT22;315;48.738;9.126;2022-08-14T01:47:01;17.70;99.90
666;DHT22;315;48.738;9.126;2022-08-14T01:49:27;17.70;99.90
666;DHT22;315;48.738;9.126;2022-08-14T01:51:52;17.70;99.90
666;DHT22;315;48.738;9.126;2022-08-14T01:54:22;17.70;99.90
666;DHT22;315;48.738;9.126;2022-08-14T01:56:53;17.70;99.90
666;DHT22;315;48.738;9.126;2022-08-14T01:59:26;17.70;99.90
666;DHT22;315;48.738;9.126;2022-08-14T02:02:05;17.70;99.90
666;DHT22;315;48.738;9.126;2022-08-14T02:04:36;17.60;99.90
666;DHT22;315;48.738;9.126;2022-08-14T02:07:04;17.60;99.90
666;DHT22;315;48.738;9.126;2022-08-14T02:09:29;17.60;99.90
666;DHT22;315;48.738;9.126;2022-08-14T02:12:00;17.60;99.90
666;DHT22;315;48.738;9.126;2022-08-14T02:14:26;17.50;99.90
666;DHT22;315;48.738;9.126;2022-08-14T02:16:52;17.40;99.90
666;DHT22;315;48.738;9.126;2022-08-14T02:19:23;17.40;99.90
666;DHT22;315;48.738;9.126;2022-08-14T02:21:51;17.50;99.90
666;DHT22;315;48.738;9.126;2022-08-14T02:24:20;17.50;99.90
666;DHT22;315;48.738;9.126;2022-08-14T02:26:46;17.50;99.90
666;DHT22;315;48.738;9.126;2022-08-14T02:29:16;17.50;99.90
666;DHT22;315;48.738;9.126;2022-08-14T02:31:45;17.50;99.90
666;DHT22;315;48.738;9.126;2022-08-14T02:34:17;17.40;99.90
666;DHT22;315;48.738;9.126;2022-08-14T02:36:44;17.40;99.90
666;DHT22;315;48.738;9.126;2022-08-14T02:39:11;17.40;99.90
666;DHT22;315;48.738;9.126;2022-08-14T02:41:37;17.30;99.90
666;DHT22;315;48.738;9.126;2022-08-14T02:44:04;17.30;99.90
666;DHT22;315;48.738;9.126;2022-08-14T02:46:30;17.20;99.90
666;DHT22;315;48.738;9.126;2022-08-14T02:48:57;17.20;99.90
666;DHT22;315;48.738;9.126;2022-08-14T02:51:23;17.20;99.90
666;DHT22;315;48.738;9.126;2022-08-14T02:53:49;17.20;99.90
666;DHT22;315;48.738;9.126;2022-08-14T02:56:16;17.10;99.90
666;DHT22;315;48.738;9.126;2022-08-14T02:58:47;17.10;99.90
666;DHT22;315;48.738;9.126;2022-08-14T03:01:15;17.10;99.90
666;DHT22;315;48.738;9.126;2022-08-14T03:03:41;17.20;99.90
666;DHT22;315;48.738;9.126;2022-08-14T03:06:08;17.20;99.90
666;DHT22;315;48.738;9.126;2022-08-14T03:08:34;17.20;99.90
666;DHT22;315;48.738;9.126;2022-08-14T03:11:04;17.30;99.90
666;DHT22;315;48.738;9.126;2022-08-14T03:13:32;17.20;99.90
666;DHT22;315;48.738;9.126;2022-08-14T03:16:00;17.20;99.90
666;DHT22;315;48.738;9.126;2022-08-14T03:18:26;17.20;99.90
666;DHT22;315;48.738;9.126;2022-08-14T03:20:52;17.10;99.90
666;DHT22;315;48.738;9.126;2022-08-14T03:23:19;17.10;99.90
666;DHT22;315;48.738;9.126;2022-08-14T03:25:45;17.10;99.90
666;DHT22;315;48.738;9.126;2022-08-14T03:28:12;17.10;99.90
666;DHT22;315;48.738;9.126;2022-08-14T03:30:38;17.10;99.90
666;DHT22;315;48.738;9.126;2022-08-14T03:33:05;17.10;99.90
666;DHT22;315;48.738;9.126;2022-08-14T03:35:31;17.10;99.90
666;DHT22;315;48.738;9.126;2022-08-14T03:38:11;17.10;99.90
666;DHT22;315;48.738;9.126;2022-08-14T03:40:40;17.00;99.90
666;DHT22;315;48.738;9.126;2022-08-14T03:43:06;17.00;99.90
666;DHT22;315;48.738;9.126;2022-08-14T03:45:38;17.00;99.90
666;DHT22;315;48.738;9.126;2022-08-14T03:50:41;17.00;99.90
666;DHT22;315;48.738;9.126;2022-08-14T03:53:09;17.00;99.90
666;DHT22;315;48.738;9.126;2022-08-14T03:55:35;17.00;99.90
666;DHT22;315;48.738;9.126;2022-08-14T03:58:02;16.90;99.90
666;DHT22;315;48.738;9.126;2022-08-14T04:00:28;17.00;99.90
666;DHT22;315;48.738;9.126;2022-08-14T04:02:54;16.90;99.90
666;DHT22;315;48.738;9.126;2022-08-14T04:05:19;16.80;99.90
666;DHT22;315;48.738;9.126;2022-08-14T04:07:45;16.80;99.90
666;DHT22;315;48.738;9.126;2022-08-14T04:10:11;16.90;99.90
666;DHT22;315;48.738;9.126;2022-08-14T04:12:37;16.90;99.90
666;DHT22;315;48.738;9.126;2022-08-14T04:15:03;16.90;99.90
666;DHT22;315;48.738;9.126;2022-08-14T04:17:30;16.90;99.90
666;DHT22;315;48.738;9.126;2022-08-14T04:19:56;16.80;99.90
666;DHT22;315;48.738;9.126;2022-08-14T04:22:23;16.80;99.90
666;DHT22;315;48.738;9.126;2022-08-14T04:24:49;16.80;99.90
666;DHT22;315;48.738;9.126;2022-08-14T04:27:17;16.80;99.90
666;DHT22;315;48.738;9.126;2022-08-14T04:29:43;16.80;99.90
666;DHT22;315;48.738;9.126;2022-08-14T04:32:10;16.70;99.90
666;DHT22;315;48.738;9.126;2022-08-14T04:34:36;16.80;99.90
666;DHT22;315;48.738;9.126;2022-08-14T04:37:07;16.70;99.90
666;DHT22;315;48.738;9.126;2022-08-14T04:39:52;16.90;99.90
666;DHT22;315;48.738;9.126;2022-08-14T04:42:37;17.00;99.90
666;DHT22;315;48.738;9.126;2022-08-14T04:45:22;17.10;99.90
666;DHT22;315;48.738;9.126;2022-08-14T04:47:50;17.10;99.90
666;DHT22;315;48.738;9.126;2022-08-14T04:50:34;17.20;99.90
666;DHT22;315;48.738;9.126;2022-08-14T04:53:01;17.30;99.90
666;DHT22;315;48.738;9.126;2022-08-14T04:55:27;17.50;99.90
666;DHT22;315;48.738;9.126;2022-08-14T04:57:52;17.70;99.90
666;DHT22;315;48.738;9.126;2022-08-14T05:00:18;18.00;99.90
666;DHT22;315;48.738;9.126;2022-08-14T05:02:44;18.10;99.90
666;DHT22;315;48.738;9.126;2022-08-14T05:05:09;18.20;99.90
666;DHT22;315;48.738;9.126;2022-08-14T05:07:35;18.40;99.90
666;DHT22;315;48.738;9.126;2022-08-14T05:10:02;18.60;99.90
666;DHT22;315;48.738;9.126;2022-08-14T05:12:28;18.80;99.90
666;DHT22;315;48.738;9.126;2022-08-14T05:14:54;19.00;99.90
666;DHT22;315;48.738;9.126;2022-08-14T05:17:19;19.00;99.90
666;DHT22;315;48.738;9.126;2022-08-14T05:19:49;19.20;99.90
666;DHT22;315;48.738;9.126;2022-08-14T05:22:15;19.40;99.90
666;DHT22;315;48.738;9.126;2022-08-14T05:24:41;19.40;99.90
666;DHT22;315;48.738;9.126;2022-08-14T05:27:06;19.50;99.90
666;DHT22;315;48.738;9.126;2022-08-14T05:29:33;19.80;99.90
666;DHT22;315;48.738;9.126;2022-08-14T05:31:59;19.70;99.90
666;DHT22;315;48.738;9.126;2022-08-14T05:34:30;19.70;99.90
666;DHT22;315;48.738;9.126;2022-08-14T05:36:56;19.70;99.90
666;DHT22;315;48.738;9.126;2022-08-14T05:39:22;19.70;99.90
666;DHT22;315;48.738;9.126;2022-08-14T05:41:47;19.70;99.90
666;DHT22;315;48.738;9.126;2022-08-14T05:44:13;19.80;99.90
666;DHT22;315;48.738;9.126;2022-08-14T05:46:38;19.80;99.90
666;DHT22;315;48.738;9.126;2022-08-14T05:49:04;20.00;99.90
666;DHT22;315;48.738;9.126;2022-08-14T05:51:30;20.10;99.90
666;DHT22;315;48.738;9.126;2022-08-14T05:53:56;20.10;99.90
666;DHT22;315;48.738;9.126;2022-08-14T05:56:23;20.10;99.90
666;DHT22;315;48.738;9.126;2022-08-14T05:58:49;20.30;99.90
666;DHT22;315;48.738;9.126;2022-08-14T06:01:14;20.40;99.90
666;DHT22;315;48.738;9.126;2022-08-14T06:03:39;20.30;99.90
666;DHT22;315;48.738;9.126;2022-08-14T06:06:05;20.20;99.90
666;DHT22;315;48.738;9.126;2022-08-14T06:08:32;20.10;99.90
666;DHT22;315;48.738;9.126;2022-08-14T06:11:01;20.30;99.90
666;DHT22;315;48.738;9.126;2022-08-14T06:13:34;20.50;99.90
666;DHT22;315;48.738;9.126;2022-08-14T06:15:59;20.80;99.90
666;DHT22;315;48.738;9.126;2022-08-14T06:18:25;21.00;99.90
666;DHT22;315;48.738;9.126;2022-08-14T06:20:51;21.30;99.40
666;DHT22;315;48.738;9.126;2022-08-14T06:23:17;21.50;98.30
666;DHT22;315;48.738;9.126;2022-08-14T06:25:43;21.80;97.40
666;DHT22;315;48.738;9.126;2022-08-14T06:28:16;22.00;96.90
666;DHT22;315;48.738;9.126;2022-08-14T06:30:42;22.30;96.90
666;DHT22;315;48.738;9.126;2022-08-14T06:33:07;22.60;95.50
666;DHT22;315;48.738;9.126;2022-08-14T06:35:33;22.90;94.70
666;DHT22;315;48.738;9.126;2022-08-14T06:37:59;23.10;93.50
666;DHT22;315;48.738;9.126;2022-08-14T06:40:30;23.30;92.80
666;DHT22;315;48.738;9.126;2022-08-14T06:42:58;23.40;91.80
666;DHT22;315;48.738;9.126;2022-08-14T06:45:24;23.40;91.70
666;DHT22;315;48.738;9.126;2022-08-14T06:47:50;23.50;90.90
666;DHT22;315;48.738;9.126;2022-08-14T06:50:18;23.50;90.80
666;DHT22;315;48.738;9.126;2022-08-14T06:52:46;23.50;90.80
666;DHT22;315;48.738;9.126;2022-08-14T06:55:13;23.90;90.50
666;DHT22;315;48.738;9.126;2022-08-14T06:57:41;24.40;88.60
666;DHT22;315;48.738;9.126;2022-08-14T07:00:09;24.60;85.00
666;DHT22;315;48.738;9.126;2022-08-14T07:02:35;24.80;84.60
666;DHT22;315;48.738;9.126;2022-08-14T07:05:27;24.90;81.40
666;DHT22;315;48.738;9.126;2022-08-14T07:08:26;24.50;80.00
666;DHT22;315;48.738;9.126;2022-08-14T07:10:54;24.00;81.20
666;DHT22;315;48.738;9.126;2022-08-14T07:13:21;23.80;82.80
666;DHT22;315;48.738;9.126;2022-08-14T07:15:49;23.90;83.10
666;DHT22;315;48.738;9.126;2022-08-14T07:20:45;24.50;79.80
666;DHT22;315;48.738;9.126;2022-08-14T07:23:10;24.90;77.80
666;DHT22;315;48.738;9.126;2022-08-14T07:25:37;25.40;75.20
666;DHT22;315;48.738;9.126;2022-08-14T07:28:10;25.60;74.50
666;DHT22;315;48.738;9.126;2022-08-14T07:30:36;25.80;73.60
666;DHT22;315;48.738;9.126;2022-08-14T07:33:02;25.60;73.50
666;DHT22;315;48.738;9.126;2022-08-14T07:35:28;25.90;73.10
666;DHT22;315;48.738;9.126;2022-08-14T07:37:54;26.40;71.80
666;DHT22;315;48.738;9.126;2022-08-14T07:40:20;26.60;70.30
666;DHT22;315;48.738;9.126;2022-08-14T07:42:45;26.60;70.30
666;DHT22;315;48.738;9.126;2022-08-14T07:45:11;26.90;68.70
666;DHT22;315;48.738;9.126;2022-08-14T07:47:41;27.30;66.70
666;DHT22;315;48.738;9.126;2022-08-14T07:50:14;27.50;65.50
666;DHT22;315;48.738;9.126;2022-08-14T07:52:41;27.60;64.40
666;DHT22;315;48.738;9.126;2022-08-14T07:55:08;27.90;63.90
666;DHT22;315;48.738;9.126;2022-08-14T07:57:34;27.90;63.50
666;DHT22;315;48.738;9.126;2022-08-14T08:00:03;28.20;63.40
666;DHT22;315;48.738;9.126;2022-08-14T08:02:30;28.20;62.60
666;DHT22;315;48.738;9.126;2022-08-14T08:04:57;28.60;62.80
666;DHT22;315;48.738;9.126;2022-08-14T08:07:26;28.80;60.00
666;DHT22;315;48.738;9.126;2022-08-14T08:09:55;29.30;59.10
666;DHT22;315;48.738;9.126;2022-08-14T08:12:24;29.30;57.60
666;DHT22;315;48.738;9.126;2022-08-14T08:14:50;29.40;57.00
666;DHT22;315;48.738;9.126;2022-08-14T08:17:17;29.40;56.70
666;DHT22;315;48.738;9.126;2022-08-14T08:19:45;29.60;56.00
666;DHT22;315;48.738;9.126;2022-08-14T08:22:12;29.60;56.10
666;DHT22;315;48.738;9.126;2022-08-14T08:24:38;29.60;55.30
666;DHT22;315;48.738;9.126;2022-08-14T08:27:17;29.00;55.40
666;DHT22;315;48.738;9.126;2022-08-14T08:29:44;28.80;56.30
666;DHT22;315;48.738;9.126;2022-08-14T08:32:09;28.90;56.20
666;DHT22;315;48.738;9.126;2022-08-14T08:34:45;29.20;54.70
666;DHT22;315;48.738;9.126;2022-08-14T08:37:11;29.40;54.40
666;DHT22;315;48.738;9.126;2022-08-14T08:39:45;29.60;54.70
666;DHT22;315;48.738;9.126;2022-08-14T08:42:11;29.30;54.40
666;DHT22;315;48.738;9.126;2022-08-14T08:44:36;29.30;53.50
666;DHT22;315;48.738;9.126;2022-08-14T08:47:02;29.20;52.90
666;DHT22;315;48.738;9.126;2022-08-14T08:49:42;29.30;52.90
666;DHT22;315;48.738;9.126;2022-08-14T08:52:07;29.30;52.50
666;DHT22;315;48.738;9.126;2022-08-14T08:54:33;29.70;52.50
666;DHT22;315;48.738;9.126;2022-08-14T08:56:59;29.90;52.60
666;DHT22;315;48.738;9.126;2022-08-14T08:59:27;29.80;51.80
666;DHT22;315;48.738;9.126;2022-08-14T09:02:06;29.90;51.90
666;DHT22;315;48.738;9.126;2022-08-14T09:04:40;30.00;51.30
666;DHT22;315;48.738;9.126;2022-08-14T09:07:07;29.80;51.50
666;DHT22;315;48.738;9.126;2022-08-14T09:09:33;29.50;51.90
666;DHT22;315;48.738;9.126;2022-08-14T09:12:01;29.50;52.50
666;DHT22;315;48.738;9.126;2022-08-14T09:14:30;30.00;52.30
666;DHT22;315;48.738;9.126;2022-08-14T09:16:57;30.20;52.30
666;DHT22;315;48.738;9.126;2022-08-14T09:19:24;30.40;51.50
666;DHT22;315;48.738;9.126;2022-08-14T09:21:50;30.70;51.40
666;DHT22;315;48.738;9.126;2022-08-14T09:24:15;31.40;50.30
666;DHT22;315;48.738;9.126;2022-08-14T09:26:43;31.20;49.80
666;DHT22;315;48.738;9.126;2022-08-14T09:29:09;30.90;50.40
666;DHT22;315;48.738;9.126;2022-08-14T09:31:38;30.70;50.40
666;DHT22;315;48.738;9.126;2022-08-14T09:40:13;32.50;48.00
666;DHT22;315;48.738;9.126;2022-08-14T09:45:20;32.00;48.90
666;DHT22;315;48.738;9.126;2022-08-14T09:47:50;32.60;48.30
666;DHT22;315;48.738;9.126;2022-08-14T09:52:54;33.00;46.20
666;DHT22;315;48.738;9.126;2022-08-14T09:55:21;33.00;46.30
666;DHT22;315;48.738;9.126;2022-08-14T09:57:48;33.60;45.80
666;DHT22;315;48.738;9.126;2022-08-14T10:00:15;34.00;45.00
666;DHT22;315;48.738;9.126;2022-08-14T10:02:55;34.80;45.00
666;DHT22;315;48.738;9.126;2022-08-14T10:05:35;35.30;44.10
666;DHT22;315;48.738;9.126;2022-08-14T10:08:03;35.20;43.40
666;DHT22;315;48.738;9.126;2022-08-14T10:10:35;35.30;43.70
666;DHT22;315;48.738;9.126;2022-08-14T10:13:07;35.70;42.90
666;DHT22;315;48.738;9.126;2022-08-14T10:15:43;35.90;41.70
666;DHT22;315;48.738;9.126;2022-08-14T10:18:12;34.30;42.60
666;DHT22;315;48.738;9.126;2022-08-14T10:20:41;34.10;43.60
666;DHT22;315;48.738;9.126;2022-08-14T10:23:21;35.30;42.40
666;DHT22;315;48.738;9.126;2022-08-14T10:25:49;36.00;41.60
666;DHT22;315;48.738;9.126;2022-08-14T10:28:19;36.20;41.10
666;DHT22;315;48.738;9.126;2022-08-14T10:30:47;37.00;40.90
666;DHT22;315;48.738;9.126;2022-08-14T10:33:27;38.50;38.70
666;DHT22;315;48.738;9.126;2022-08-14T10:35:54;39.40;38.00
666;DHT22;315;48.738;9.126;2022-08-14T10:38:33;40.10;37.10
666;DHT22;315;48.738;9.126;2022-08-14T10:43:36;40.30;34.50
666;DHT22;315;48.738;9.126;2022-08-14T10:46:12;40.00;33.70
666;DHT22;315;48.738;9.126;2022-08-14T10:48:37;38.70;34.50
666;DHT22;315;48.738;9.126;2022-08-14T10:51:03;38.50;34.30
666;DHT22;315;48.738;9.126;2022-08-14T10:53:33;38.60;34.30
666;DHT22;315;48.738;9.126;2022-08-14T10:56:01;38.40;34.30
666;DHT22;315;48.738;9.126;2022-08-14T10:58:29;38.60;33.80
666;DHT22;315;48.738;9.126;2022-08-14T11:00:58;39.00;33.60
666;DHT22;315;48.738;9.126;2022-08-14T11:03:41;39.00;33.00
666;DHT22;315;48.738;9.126;2022-08-14T11:06:17;37.80;33.50
666;DHT22;315;48.738;9.126;2022-08-14T11:08:47;38.10;33.70
666;DHT22;315;48.738;9.126;2022-08-14T11:11:14;39.20;33.20
666;DHT22;315;48.738;9.126;2022-08-14T11:13:42;38.60;33.20
666;DHT22;315;48.738;9.126;2022-08-14T11:16:12;38.60;33.20
666;DHT22;315;48.738;9.126;2022-08-14T11:18:40;39.10;32.50
666;DHT22;315;48.738;9.126;2022-08-14T11:21:08;39.50;32.40
666;DHT22;315;48.738;9.126;2022-08-14T11:23:36;39.40;32.30
666;DHT22;315;48.738;9.126;2022-08-14T11:26:03;39.90;32.20
666;DHT22;315;48.738;9.126;2022-08-14T11:28:38;40.30;31.40
666;DHT22;315;48.738;9.126;2022-08-14T11:31:04;41.00;31.20
666;DHT22;315;48.738;9.126;2022-08-14T11:33:32;40.90;30.20
666;DHT22;315;48.738;9.126;2022-08-14T11:36:02;40.30;30.00
666;DHT22;315;48.738;9.126;2022-08-14T11:38:43;40.00;30.50
666;DHT22;315;48.738;9.126;2022-08-14T11:41:13;40.20;30.10
666;DHT22;315;48.738;9.126;2022-08-14T11:43:41;41.00;29.90
666;DHT22;315;48.738;9.126;2022-08-14T11:46:08;42.00;29.60
666;DHT22;315;48.738;9.126;2022-08-14T11:48:49;41.90;29.00
666;DHT22;315;48.738;9.126;2022-08-14T11:51:18;42.00;28.50
666;DHT22;315;48.738;9.126;2022-08-14T11:53:56;41.60;28.00
666;DHT22;315;48.738;9.126;2022-08-14T11:56:33;41.30;28.70
666;DHT22;315;48.738;9.126;2022-08-14T11:59:00;42.30;28.50
666;DHT22;315;48.738;9.126;2022-08-14T12:01:27;43.70;28.10
666;DHT22;315;48.738;9.126;2022-08-14T12:03:54;43.70;27.10
666;DHT22;315;48.738;9.126;2022-08-14T12:06:24;43.10;27.20
666;DHT22;315;48.738;9.126;2022-08-14T12:08:50;43.20;27.50
666;DHT22;315;48.738;9.126;2022-08-14T12:11:18;43.30;26.80
666;DHT22;315;48.738;9.126;2022-08-14T12:13:45;43.80;26.60
666;DHT22;315;48.738;9.126;2022-08-14T12:16:15;44.90;26.70
666;DHT22;315;48.738;9.126;2022-08-14T12:18:45;45.90;26.40
666;DHT22;315;48.738;9.126;2022-08-14T12:21:23;46.40;27.00
666;DHT22;315;48.738;9.126;2022-08-14T12:24:04;48.10;24.00
666;DHT22;315;48.738;9.126;2022-08-14T12:26:30;46.70;22.90
666;DHT22;315;48.738;9.126;2022-08-14T12:29:10;45.70;23.40
666;DHT22;315;48.738;9.126;2022-08-14T12:31:37;45.50;23.30
666;DHT22;315;48.738;9.126;2022-08-14T12:34:05;45.70;23.10
666;DHT22;315;48.738;9.126;2022-08-14T12:36:33;45.50;23.30
666;DHT22;315;48.738;9.126;2022-08-14T12:39:00;45.70;23.10
666;DHT22;315;48.738;9.126;2022-08-14T12:41:30;45.50;23.00
666;DHT22;315;48.738;9.126;2022-08-14T12:44:04;45.40;22.60
666;DHT22;315;48.738;9.126;2022-08-14T12:46:37;45.80;21.90
666;DHT22;315;48.738;9.126;2022-08-14T12:49:09;46.80;21.60
666;DHT22;315;48.738;9.126;2022-08-14T12:51:35;46.00;21.60
666;DHT22;315;48.738;9.126;2022-08-14T12:54:12;47.00;21.60
666;DHT22;315;48.738;9.126;2022-08-14T12:56:40;46.90;21.60
666;DHT22;315;48.738;9.126;2022-08-14T12:59:06;47.10;21.30
666;DHT22;315;48.738;9.126;2022-08-14T13:01:33;48.00;20.80
666;DHT22;315;48.738;9.126;2022-08-14T13:06:33;49.80;20.10
666;DHT22;315;48.738;9.126;2022-08-14T13:08:59;48.30;19.60
666;DHT22;315;48.738;9.126;2022-08-14T13:11:28;46.90;20.00
666;DHT22;315;48.738;9.126;2022-08-14T13:13:57;45.40;20.30
666;DHT22;315;48.738;9.126;2022-08-14T13:16:24;44.30;20.80
666;DHT22;315;48.738;9.126;2022-08-14T13:18:55;44.20;21.00
666;DHT22;315;48.738;9.126;2022-08-14T13:21:26;43.80;20.90
666;DHT22;315;48.738;9.126;2022-08-14T13:23:53;45.30;20.50
666;DHT22;315;48.738;9.126;2022-08-14T13:26:19;46.10;20.30
666;DHT22;315;48.738;9.126;2022-08-14T13:28:50;46.30;20.60
666;DHT22;315;48.738;9.126;2022-08-14T13:31:21;45.80;20.30
666;DHT22;315;48.738;9.126;2022-08-14T13:33:49;46.00;20.20
666;DHT22;315;48.738;9.126;2022-08-14T13:36:15;46.00;20.10
666;DHT22;315;48.738;9.126;2022-08-14T13:38:42;45.40;19.90
666;DHT22;315;48.738;9.126;2022-08-14T13:41:09;44.50;19.90
666;DHT22;315;48.738;9.126;2022-08-14T13:43:36;44.00;20.10
666;DHT22;315;48.738;9.126;2022-08-14T13:46:03;43.40;20.20
666;DHT22;315;48.738;9.126;2022-08-14T13:48:29;42.50;20.60
666;DHT22;315;48.738;9.126;2022-08-14T13:50:57;41.70;20.90
666;DHT22;315;48.738;9.126;2022-08-14T13:53:24;39.20;22.10
666;DHT22;315;48.738;9.126;2022-08-14T13:55:51;38.70;22.50
666;DHT22;315;48.738;9.126;2022-08-14T13:58:19;38.50;22.50
666;DHT22;315;48.738;9.126;2022-08-14T14:00:46;38.40;22.80
666;DHT22;315;48.738;9.126;2022-08-14T14:03:16;38.10;23.10
666;DHT22;315;48.738;9.126;2022-08-14T14:05:42;37.90;22.70
666;DHT22;315;48.738;9.126;2022-08-14T14:08:08;37.00;23.00
666;DHT22;315;48.738;9.126;2022-08-14T14:10:36;35.60;23.80
666;DHT22;315;48.738;9.126;2022-08-14T14:13:03;35.50;24.00
666;DHT22;315;48.738;9.126;2022-08-14T14:15:30;35.00;24.50
666;DHT22;315;48.738;9.126;2022-08-14T14:17:58;34.60;24.70
666;DHT22;315;48.738;9.126;2022-08-14T14:20:23;34.10;25.80
666;DHT22;315;48.738;9.126;2022-08-14T14:22:50;33.50;26.00
666;DHT22;315;48.738;9.126;2022-08-14T14:25:17;32.80;26.50
666;DHT22;315;48.738;9.126;2022-08-14T14:27:45;32.70;27.20
666;DHT22;315;48.738;9.126;2022-08-14T14:30:13;32.50;26.60
666;DHT22;315;48.738;9.126;2022-08-14T14:32:40;32.60;26.60
666;DHT22;315;48.738;9.126;2022-08-14T14:35:13;32.50;26.50
666;DHT22;315;48.738;9.126;2022-08-14T14:37:41;32.70;26.80
666;DHT22;315;48.738;9.126;2022-08-14T14:40:08;32.90;26.90
666;DHT22;315;48.738;9.126;2022-08-14T14:42:36;32.90;26.80
666;DHT22;315;48.738;9.126;2022-08-14T14:45:09;32.80;26.90
666;DHT22;315;48.738;9.126;2022-08-14T14:47:43;32.80;26.30
666;DHT22;315;48.738;9.126;2022-08-14T14:50:10;32.80;26.30
666;DHT22;315;48.738;9.126;2022-08-14T14:52:37;32.70;26.30
666;DHT22;315;48.738;9.126;2022-08-14T14:55:05;32.80;26.10
666;DHT22;315;48.738;9.126;2022-08-14T14:57:33;33.00;26.00
666;DHT22;315;48.738;9.126;2022-08-14T14:59:58;33.10;26.00
666;DHT22;315;48.738;9.126;2022-08-14T15:04:55;33.00;26.10
666;DHT22;315;48.738;9.126;2022-08-14T15:07:21;33.10;26.10
666;DHT22;315;48.738;9.126;2022-08-14T15:09:47;33.40;26.20
666;DHT22;315;48.738;9.126;2022-08-14T15:12:12;33.50;25.90
666;DHT22;315;48.738;9.126;2022-08-14T15:14:38;33.30;25.70
666;DHT22;315;48.738;9.126;2022-08-14T15:17:04;33.30;26.00
666;DHT22;315;48.738;9.126;2022-08-14T15:19:30;33.00;26.00
666;DHT22;315;48.738;9.126;2022-08-14T15:21:56;32.80;26.50
666;DHT22;315;48.738;9.126;2022-08-14T15:24:21;32.60;26.00
666;DHT22;315;48.738;9.126;2022-08-14T15:26:47;33.00;27.00
666;DHT22;315;48.738;9.126;2022-08-14T15:29:12;33.20;26.30
666;DHT22;315;48.738;9.126;2022-08-14T15:31:39;33.30;26.50
666;DHT22;315;48.738;9.126;2022-08-14T15:34:05;33.20;26.30
666;DHT22;315;48.738;9.126;2022-08-14T15:36:42;33.10;26.60
666;DHT22;315;48.738;9.126;2022-08-14T15:39:13;33.00;26.70
666;DHT22;315;48.738;9.126;2022-08-14T15:41:38;32.80;26.30
666;DHT22;315;48.738;9.126;2022-08-14T15:44:04;32.60;26.40
666;DHT22;315;48.738;9.126;2022-08-14T15:46:31;32.50;26.50
666;DHT22;315;48.738;9.126;2022-08-14T15:48:57;32.30;26.50
666;DHT22;315;48.738;9.126;2022-08-14T15:51:23;32.20;26.60
666;DHT22;315;48.738;9.126;2022-08-14T15:53:49;32.10;26.80
666;DHT22;315;48.738;9.126;2022-08-14T15:56:16;32.00;26.90
666;DHT22;315;48.738;9.126;2022-08-14T15:58:43;32.10;27.10
666;DHT22;315;48.738;9.126;2022-08-14T16:01:08;32.10;27.30
666;DHT22;315;48.738;9.126;2022-08-14T16:03:49;32.10;27.20
666;DHT22;315;48.738;9.126;2022-08-14T16:06:18;32.10;26.90
666;DHT22;315;48.738;9.126;2022-08-14T16:08:51;32.10;26.90
666;DHT22;315;48.738;9.126;2022-08-14T16:11:17;32.00;26.60
666;DHT22;315;48.738;9.126;2022-08-14T16:13:43;31.90;27.00
666;DHT22;315;48.738;9.126;2022-08-14T16:16:17;31.80;26.80
666;DHT22;315;48.738;9.126;2022-08-14T16:18:47;31.80;27.00
666;DHT22;315;48.738;9.126;2022-08-14T16:21:16;31.70;27.40
666;DHT22;315;48.738;9.126;2022-08-14T16:23:43;31.70;27.50
666;DHT22;315;48.738;9.126;2022-08-14T16:26:17;31.60;27.10
666;DHT22;315;48.738;9.126;2022-08-14T16:28:55;31.40;27.10
666;DHT22;315;48.738;9.126;2022-08-14T16:31:29;31.40;27.60
666;DHT22;315;48.738;9.126;2022-08-14T16:33:54;31.50;27.60
666;DHT22;315;48.738;9.126;2022-08-14T16:36:22;31.40;27.20
666;DHT22;315;48.738;9.126;2022-08-14T16:38:52;31.30;27.40
666;DHT22;315;48.738;9.126;2022-08-14T16:41:19;31.20;28.10
666;DHT22;315;48.738;9.126;2022-08-14T16:43:56;31.20;28.70
666;DHT22;315;48.738;9.126;2022-08-14T16:46:22;31.30;28.50
666;DHT22;315;48.738;9.126;2022-08-14T16:48:47;31.20;27.50
666;DHT22;315;48.738;9.126;2022-08-14T16:51:15;31.20;27.70
666;DHT22;315;48.738;9.126;2022-08-14T16:53:43;31.10;27.90
666;DHT22;315;48.738;9.126;2022-08-14T16:56:17;31.10;28.60
666;DHT22;315;48.738;9.126;2022-08-14T16:58:44;31.10;29.00
666;DHT22;315;48.738;9.126;2022-08-14T17:04:04;30.80;29.30
666;DHT22;315;48.738;9.126;2022-08-14T17:06:48;30.60;29.40
666;DHT22;315;48.738;9.126;2022-08-14T17:09:37;30.60;28.90